createdAt,value
2023-01-28T00:00:35.507Z,85.71
2023-01-28T00:03:24.095Z,85.59
2023-01-28T00:06:14.686Z,85.38
2023-01-28T00:09:03.177Z,86.15
2023-01-28T00:11:51.647Z,85.34
2023-01-28T00:14:41.504Z,84.99
2023-01-28T00:17:30.085Z,84.68
2023-01-28T00:20:18.670Z,85.70
2023-01-28T00:23:07.324Z,85.54
2023-01-28T00:25:55.906Z,85.10
2023-01-28T00:28:45.189Z,84.42
2023-01-28T00:31:35.411Z,84.81
2023-01-28T00:34:24.033Z,84.57
2023-01-28T00:37:12.516Z,84.67
2023-01-28T00:40:00.992Z,85.03
2023-01-28T00:42:49.415Z,85.26
2023-01-28T00:45:39.060Z,85.35
2023-01-28T00:48:28.954Z,84.63
2023-01-28T00:51:20.107Z,85.07
2023-01-28T00:54:08.903Z,85.53
2023-01-28T00:56:57.375Z,86.41
2023-01-28T00:59:45.806Z,86.75
2023-01-28T01:02:34.374Z,86.48
2023-01-28T01:05:24.244Z,86.87
2023-01-28T01:08:12.709Z,86.66
2023-01-28T01:11:01.269Z,87.02
2023-01-28T01:13:54.906Z,86.05
2023-01-28T01:16:43.721Z,86.65
2023-01-28T01:19:32.361Z,86.69
2023-01-28T01:22:22.206Z,87.37
2023-01-28T01:25:11.679Z,87.27
2023-01-28T01:28:00.128Z,87.76
2023-01-28T01:30:49.036Z,87.95
2023-01-28T01:33:37.526Z,87.93
2023-01-28T01:36:26.090Z,87.82
2023-01-28T01:39:15.920Z,88.01
2023-01-28T01:42:04.798Z,88.50
2023-01-28T01:45:03.348Z,88.69
2023-01-28T01:47:57.268Z,88.54
2023-01-28T01:50:49.727Z,90.23
2023-01-28T01:53:39.000Z,90.27
2023-01-28T01:56:31.382Z,90.12
2023-01-28T01:59:24.607Z,90.94
2023-01-28T02:02:13.641Z,90.35
2023-01-28T02:05:02.361Z,90.60
2023-01-28T02:07:54.916Z,90.78
2023-01-28T02:10:43.452Z,90.50
2023-01-28T02:13:36.967Z,90.81
2023-01-28T02:16:26.135Z,91.20
2023-01-28T02:19:14.855Z,90.95
2023-01-28T02:22:11.675Z,91.29
2023-01-28T02:25:17.511Z,91.88
2023-01-28T02:28:15.768Z,91.61
2023-01-28T02:31:10.921Z,91.96
2023-01-28T02:34:04.042Z,91.82
2023-01-28T02:36:55.228Z,92.15
2023-01-28T02:39:48.132Z,91.60
2023-01-28T02:42:38.866Z,91.76
2023-01-28T02:45:52.973Z,92.07
2023-01-28T02:48:40.561Z,92.11
2023-01-28T02:51:35.197Z,92.36
2023-01-28T02:54:33.504Z,92.81
2023-01-28T02:57:31.832Z,93.19
2023-01-28T03:00:24.522Z,93.98
2023-01-28T03:03:18.379Z,94.26
2023-01-28T03:06:09.836Z,93.98
2023-01-28T03:09:17.921Z,94.30
2023-01-28T03:12:25.699Z,94.41
2023-01-28T03:15:33.804Z,94.74
2023-01-28T03:18:44.070Z,94.06
2023-01-28T03:21:51.358Z,94.68
2023-01-28T03:25:03.052Z,94.72
2023-01-28T03:28:13.095Z,95.33
2023-01-28T03:31:21.855Z,94.91
2023-01-28T03:34:29.981Z,95.53
2023-01-28T03:37:18.512Z,95.36
2023-01-28T03:40:08.384Z,95.94
2023-01-28T03:42:57.132Z,95.88
2023-01-28T03:45:46.227Z,95.88
2023-01-28T03:48:34.935Z,96.69
2023-01-28T03:51:24.719Z,96.73
2023-01-28T03:54:13.638Z,96.19
2023-01-28T03:57:02.453Z,96.23
2023-01-28T03:59:52.599Z,96.17
2023-01-28T04:02:41.083Z,96.09
2023-01-28T04:05:29.630Z,96.21
2023-01-28T04:08:19.424Z,96.51
2023-01-28T04:11:16.521Z,96.72
2023-01-28T04:14:05.229Z,96.95
2023-01-28T04:16:54.925Z,97.21
2023-01-28T04:19:43.442Z,96.92
2023-01-28T04:22:31.837Z,97.06
2023-01-28T04:25:21.673Z,96.83
2023-01-28T04:28:10.145Z,96.77
2023-01-28T04:30:58.688Z,96.46
2023-01-28T04:33:47.255Z,96.74
2023-01-28T04:36:35.700Z,96.93
2023-01-28T04:39:24.170Z,97.28
2023-01-28T04:42:13.968Z,98.30
2023-01-28T04:45:02.456Z,98.47
2023-01-28T04:47:51.323Z,98.67
2023-01-28T04:50:39.860Z,98.45
2023-01-28T04:53:28.393Z,98.73
2023-01-28T04:56:16.833Z,97.88
2023-01-28T04:59:06.674Z,97.86
2023-01-28T05:01:55.187Z,100.00
2023-01-28T05:04:43.708Z,100.00
2023-01-28T05:07:32.143Z,100.00
2023-01-28T05:10:20.721Z,100.00
2023-01-28T05:13:09.296Z,100.00
2023-01-28T05:15:59.078Z,100.00
2023-01-28T05:18:48.208Z,100.00
2023-01-28T05:21:36.673Z,100.00
2023-01-28T05:24:25.148Z,100.00
2023-01-28T05:27:13.664Z,100.00
2023-01-28T05:30:02.162Z,100.00
2023-01-28T05:32:56.062Z,100.00
2023-01-28T05:35:44.570Z,100.00
2023-01-28T05:38:33.074Z,100.00
2023-01-28T05:41:21.491Z,100.00
2023-01-28T05:44:10.003Z,100.00
2023-01-28T05:46:58.480Z,100.00
2023-01-28T05:49:48.364Z,100.00
2023-01-28T05:52:36.812Z,100.00
2023-01-28T05:55:26.625Z,100.00
2023-01-28T05:58:15.119Z,100.00
2023-01-28T06:01:03.647Z,100.00
2023-01-28T06:03:52.125Z,100.00
2023-01-28T06:06:41.954Z,100.00
2023-01-28T06:09:30.456Z,100.00
2023-01-28T06:12:18.980Z,100.00
2023-01-28T06:15:08.591Z,100.00
2023-01-28T06:17:57.075Z,100.00
2023-01-28T06:20:45.585Z,100.00
2023-01-28T06:23:35.419Z,100.00
2023-01-28T06:26:24.318Z,100.00
2023-01-28T06:29:12.762Z,100.00
2023-01-28T06:32:01.249Z,100.00
2023-01-28T06:34:49.913Z,100.00
2023-01-28T06:37:39.653Z,100.00
2023-01-28T06:40:29.506Z,100.00
2023-01-28T06:43:18.186Z,100.00
2023-01-28T06:46:07.142Z,100.00
2023-01-28T06:48:55.714Z,100.00
2023-01-28T06:51:44.306Z,100.00
2023-01-28T06:54:32.776Z,100.00
2023-01-28T06:57:22.583Z,100.00
2023-01-28T07:00:13.537Z,100.00
2023-01-28T07:03:02.307Z,100.00
2023-01-28T07:05:50.948Z,100.00
2023-01-28T07:08:39.890Z,100.00
2023-01-28T07:11:28.363Z,100.00
2023-01-28T07:14:18.179Z,100.00
2023-01-28T07:17:06.753Z,100.00
2023-01-28T07:19:55.274Z,100.00
2023-01-28T07:22:44.584Z,100.00
2023-01-28T07:25:33.078Z,100.00
2023-01-28T07:28:22.166Z,100.00
2023-01-28T07:31:12.074Z,100.00
2023-01-28T07:34:00.620Z,100.00
2023-01-28T07:36:49.075Z,100.00
2023-01-28T07:39:37.529Z,100.00
2023-01-28T07:42:26.025Z,100.00
2023-01-28T07:45:14.800Z,100.00
2023-01-28T07:48:06.656Z,100.00
2023-01-28T07:50:55.216Z,100.00
2023-01-28T07:53:43.696Z,100.00
2023-01-28T07:56:32.336Z,100.00
2023-01-28T07:59:20.785Z,100.00
2023-01-28T08:02:12.422Z,100.00
2023-01-28T08:05:02.350Z,100.00
2023-01-28T08:07:50.889Z,100.00
2023-01-28T08:10:40.055Z,100.00
2023-01-28T08:13:29.012Z,100.00
2023-01-28T08:16:17.573Z,100.00
2023-01-28T08:19:06.101Z,100.00
2023-01-28T08:21:55.945Z,100.00
2023-01-28T08:24:44.470Z,100.00
2023-01-28T08:27:33.391Z,100.00
2023-01-28T08:30:22.119Z,100.00
2023-01-28T08:33:12.190Z,100.00
2023-01-28T08:36:03.986Z,100.00
2023-01-28T08:38:55.140Z,100.00
2023-01-28T08:41:43.647Z,100.00
2023-01-28T08:44:32.127Z,100.00
2023-01-28T08:47:20.666Z,100.00
2023-01-28T08:50:10.711Z,100.00
2023-01-28T08:53:00.778Z,100.00
2023-01-28T08:55:50.640Z,100.00
2023-01-28T08:58:39.276Z,100.00
2023-01-28T09:01:29.420Z,100.00
2023-01-28T09:04:18.076Z,100.00
2023-01-28T09:07:06.520Z,100.00
2023-01-28T09:09:55.040Z,100.00
2023-01-28T09:12:45.223Z,100.00
2023-01-28T09:15:34.085Z,100.00
2023-01-28T09:18:22.910Z,100.00
2023-01-28T09:21:11.562Z,100.00
2023-01-28T09:24:00.163Z,100.00
2023-01-28T09:26:49.645Z,100.00
2023-01-28T09:29:39.473Z,100.00
2023-01-28T09:32:28.164Z,100.00
2023-01-28T09:35:17.860Z,100.00
2023-01-28T09:38:06.348Z,100.00
2023-01-28T09:40:56.087Z,100.00
2023-01-28T09:44:07.075Z,100.00
2023-01-28T09:47:02.829Z,100.00
2023-01-28T09:49:53.650Z,100.00
2023-01-28T09:52:42.454Z,100.00
2023-01-28T09:55:33.618Z,100.00
2023-01-28T09:58:22.203Z,100.00
2023-01-28T10:01:27.217Z,100.00
2023-01-28T10:04:26.000Z,100.00
2023-01-28T10:07:28.844Z,100.00
2023-01-28T10:10:19.391Z,100.00
2023-01-28T10:13:19.655Z,100.00
2023-01-28T10:16:21.567Z,100.00
2023-01-28T10:19:16.958Z,100.00
2023-01-28T10:22:08.860Z,100.00
2023-01-28T10:25:01.853Z,100.00
2023-01-28T10:27:51.924Z,100.00
2023-01-28T10:30:41.940Z,100.00
2023-01-28T10:33:32.868Z,100.00
2023-01-28T10:36:21.357Z,100.00
2023-01-28T10:39:12.441Z,100.00
2023-01-28T10:42:00.956Z,100.00
2023-01-28T10:44:50.748Z,100.00
2023-01-28T10:47:40.983Z,100.00
2023-01-28T10:50:31.404Z,100.00
2023-01-28T10:53:19.964Z,100.00
2023-01-28T10:56:11.572Z,100.00
2023-01-28T10:59:02.572Z,100.00
2023-01-28T11:01:53.721Z,100.00
2023-01-28T11:04:42.309Z,100.00
2023-01-28T11:07:30.848Z,100.00
2023-01-28T11:10:32.227Z,100.00
2023-01-28T11:13:25.002Z,100.00
2023-01-28T11:16:17.511Z,100.00
2023-01-28T11:19:06.524Z,100.00
2023-01-28T11:21:56.844Z,100.00
2023-01-28T11:24:45.404Z,100.00
2023-01-28T11:27:34.389Z,100.00
2023-01-28T11:30:26.193Z,100.00
2023-01-28T11:33:19.020Z,100.00
2023-01-28T11:36:13.074Z,100.00
2023-01-28T11:39:05.366Z,100.00
2023-01-28T11:41:54.312Z,100.00
2023-01-28T11:44:42.981Z,100.00
2023-01-28T11:47:25.111Z,99.73
2023-01-28T11:50:03.140Z,99.99
2023-01-28T11:53:04.411Z,98.86
2023-01-28T11:55:38.776Z,98.73
2023-01-28T11:58:18.481Z,96.87
2023-01-28T12:00:51.143Z,96.10
2023-01-28T12:03:36.123Z,97.84
2023-01-28T12:06:18.882Z,98.73
2023-01-28T12:08:52.433Z,98.74
2023-01-28T12:11:47.807Z,96.00
2023-01-28T12:14:25.139Z,95.42
2023-01-28T12:17:20.367Z,94.80
2023-01-28T12:20:17.656Z,94.46
2023-01-28T12:23:21.646Z,93.80
2023-01-28T12:26:12.727Z,93.59
2023-01-28T12:29:08.400Z,94.89
2023-01-28T12:32:18.988Z,93.10
2023-01-28T12:35:32.610Z,90.03
2023-01-28T12:38:26.734Z,89.19
2023-01-28T12:41:16.442Z,88.40
2023-01-28T12:44:07.680Z,88.43
2023-01-28T12:46:58.708Z,87.38
2023-01-28T12:49:50.747Z,88.39
2023-01-28T12:52:44.231Z,88.03
2023-01-28T12:55:40.658Z,86.38
2023-01-28T12:58:38.390Z,84.90
2023-01-28T13:01:30.332Z,85.02
2023-01-28T13:04:26.686Z,85.33
2023-01-28T13:07:18.151Z,84.23
2023-01-28T13:10:15.004Z,84.02
2023-01-28T13:13:04.162Z,83.49
2023-01-28T13:15:52.628Z,83.94
2023-01-28T13:18:46.244Z,84.75
2023-01-28T13:21:47.490Z,84.44
2023-01-28T13:24:37.606Z,84.21
2023-01-28T13:27:29.096Z,83.67
2023-01-28T13:30:26.830Z,83.22
2023-01-28T13:33:29.293Z,83.54
2023-01-28T13:36:25.893Z,83.00
2023-01-28T13:39:19.846Z,82.78
2023-01-28T13:42:23.406Z,83.07
2023-01-28T13:45:24.689Z,83.94
2023-01-28T13:48:24.606Z,84.03
2023-01-28T13:51:20.829Z,85.01
2023-01-28T13:54:15.553Z,84.38
2023-01-28T13:57:17.446Z,84.99
2023-01-28T14:00:09.672Z,83.27
2023-01-28T14:03:39.854Z,83.18
2023-01-28T14:07:09.962Z,83.44
2023-01-28T14:10:29.991Z,82.64
2023-01-28T14:13:34.854Z,83.40
2023-01-28T14:16:35.897Z,82.61
2023-01-28T14:19:28.233Z,83.28
2023-01-28T14:22:20.122Z,83.54
2023-01-28T14:25:14.303Z,82.95
2023-01-28T14:28:04.493Z,82.73
2023-01-28T14:30:56.205Z,81.81
2023-01-28T14:33:44.833Z,82.17
2023-01-28T14:36:38.014Z,81.91
2023-01-28T14:39:29.112Z,81.74
2023-01-28T14:42:22.063Z,81.61
2023-01-28T14:45:20.182Z,81.70
2023-01-28T14:48:21.649Z,81.40
2023-01-28T14:51:22.521Z,81.95
2023-01-28T14:54:23.502Z,81.98
2023-01-28T14:57:25.245Z,81.06
2023-01-28T15:00:19.636Z,81.08
2023-01-28T15:03:24.763Z,80.73
2023-01-28T15:06:15.722Z,80.96
2023-01-28T15:09:08.952Z,81.06
2023-01-28T15:11:58.488Z,80.80
2023-01-28T15:14:49.061Z,80.87
2023-01-28T15:17:37.806Z,80.67
2023-01-28T15:20:26.392Z,81.42
2023-01-28T15:26:14.753Z,82.07
2023-01-28T15:29:03.360Z,82.16
2023-01-28T15:31:53.680Z,82.37
2023-01-28T15:34:47.182Z,87.86
2023-01-28T15:37:35.697Z,83.38
2023-01-28T15:40:25.914Z,80.60
2023-01-28T15:43:22.232Z,80.22
2023-01-28T15:46:12.508Z,78.93
2023-01-28T15:49:04.127Z,79.97
2023-01-28T15:51:52.669Z,79.51
2023-01-28T15:54:41.920Z,79.14
2023-01-28T15:57:32.007Z,79.78
2023-01-28T16:00:21.753Z,78.64
2023-01-28T16:03:11.182Z,78.84
2023-01-28T16:06:03.113Z,79.60
2023-01-28T16:08:55.378Z,79.68
2023-01-28T16:11:45.514Z,79.83
2023-01-28T16:14:40.366Z,80.66
2023-01-28T16:17:32.309Z,80.36
2023-01-28T16:20:23.880Z,79.83
2023-01-28T16:23:24.420Z,78.84
2023-01-28T16:26:22.580Z,79.19
2023-01-28T16:29:14.732Z,79.47
2023-01-28T16:32:04.126Z,79.11
2023-01-28T16:34:52.678Z,79.12
2023-01-28T16:37:42.387Z,78.91
2023-01-28T16:40:32.483Z,79.58
2023-01-28T16:43:20.984Z,79.17
2023-01-28T16:46:13.375Z,79.17
2023-01-28T16:49:02.916Z,79.54
2023-01-28T16:51:51.496Z,79.19
2023-01-28T16:54:45.386Z,79.44
2023-01-28T16:57:36.857Z,79.56
2023-01-28T17:00:27.400Z,79.05
2023-01-28T17:03:16.115Z,78.47
2023-01-28T17:06:04.907Z,78.14
2023-01-28T17:08:53.352Z,78.53
2023-01-28T17:11:41.998Z,78.39
2023-01-28T17:14:31.919Z,79.22
2023-01-28T17:17:20.378Z,78.97
2023-01-28T17:20:10.454Z,79.98
2023-01-28T17:22:59.041Z,79.53
2023-01-28T17:25:47.528Z,80.20
2023-01-28T17:28:36.311Z,80.16
2023-01-28T17:31:27.394Z,80.27
2023-01-28T17:34:16.004Z,79.76
2023-01-28T17:37:04.527Z,79.29
2023-01-28T17:39:53.031Z,80.61
2023-01-28T17:42:41.521Z,80.22
2023-01-28T17:45:31.483Z,80.29
2023-01-28T17:48:21.339Z,81.16
2023-01-28T17:51:10.044Z,81.21
2023-01-28T17:53:58.564Z,80.58
2023-01-28T17:56:47.294Z,80.04
2023-01-28T17:59:35.978Z,80.45
2023-01-28T18:02:24.484Z,81.10
2023-01-28T18:05:15.114Z,81.82
2023-01-28T18:08:04.754Z,81.70
2023-01-28T18:10:55.128Z,81.36
2023-01-28T18:13:44.116Z,82.03
2023-01-28T18:16:32.578Z,81.16
2023-01-28T18:19:21.291Z,81.16
2023-01-28T18:22:13.737Z,80.93
2023-01-28T18:25:02.372Z,81.46
2023-01-28T18:27:52.149Z,81.89
2023-01-28T18:30:41.041Z,81.29
2023-01-28T18:33:33.978Z,80.40
2023-01-28T18:36:22.596Z,80.59
2023-01-28T18:39:13.696Z,79.98
2023-01-28T18:42:02.237Z,80.90
2023-01-28T18:44:50.917Z,81.68
2023-01-28T18:47:39.374Z,81.50
2023-01-28T18:50:28.059Z,81.50
2023-01-28T18:53:16.720Z,82.06
2023-01-28T18:56:07.913Z,81.17
2023-01-28T18:58:57.655Z,80.88
2023-01-28T19:01:47.841Z,81.48
2023-01-28T19:04:36.514Z,81.20
2023-01-28T19:07:25.348Z,81.54
2023-01-28T19:10:13.991Z,81.07
2023-01-28T19:13:03.918Z,81.16
2023-01-28T19:15:53.052Z,81.80
2023-01-28T19:18:41.672Z,81.17
2023-01-28T19:21:31.639Z,82.09
2023-01-28T19:24:20.209Z,82.30
2023-01-28T19:27:08.919Z,82.18
2023-01-28T19:29:58.787Z,81.46
2023-01-28T19:32:49.020Z,81.55
2023-01-28T19:35:37.998Z,82.07
2023-01-28T19:38:26.831Z,82.20
2023-01-28T19:41:17.004Z,79.87
2023-01-28T19:44:05.875Z,79.57
2023-01-28T19:46:55.772Z,79.95
2023-01-28T19:49:44.355Z,81.11
2023-01-28T19:52:33.101Z,81.39
2023-01-28T19:55:21.845Z,81.70
2023-01-28T19:58:11.613Z,80.79
2023-01-28T20:01:05.265Z,80.78
2023-01-28T20:03:58.676Z,81.75
2023-01-28T20:06:47.240Z,81.75
2023-01-28T20:09:35.773Z,81.26
2023-01-28T20:12:26.989Z,81.27
2023-01-28T20:15:15.800Z,81.18
2023-01-28T20:18:05.045Z,80.43
2023-01-28T20:20:55.652Z,80.04
2023-01-28T20:23:44.184Z,78.60
2023-01-28T20:26:37.414Z,78.62
2023-01-28T20:29:25.992Z,78.35
2023-01-28T20:32:19.119Z,79.00
2023-01-28T20:35:10.073Z,78.46
2023-01-28T20:38:04.077Z,77.02
2023-01-28T20:40:52.660Z,77.42
2023-01-28T20:43:42.652Z,77.12
2023-01-28T20:46:32.954Z,77.12
2023-01-28T20:49:21.481Z,76.62
2023-01-28T20:52:10.218Z,76.99
2023-01-28T20:55:01.602Z,76.86
2023-01-28T20:57:50.115Z,77.19
2023-01-28T21:00:38.910Z,75.99
2023-01-28T21:03:27.854Z,76.47
2023-01-28T21:06:16.640Z,76.20
2023-01-28T21:09:06.261Z,76.80
2023-01-28T21:11:56.149Z,76.95
2023-01-28T21:14:44.676Z,76.38
2023-01-28T21:17:33.381Z,75.84
2023-01-28T21:20:21.915Z,76.25
2023-01-28T21:23:14.697Z,76.24
2023-01-28T21:26:04.922Z,76.31
2023-01-28T21:28:56.126Z,75.88
2023-01-28T21:31:44.756Z,75.94
2023-01-28T21:34:33.390Z,75.89
2023-01-28T21:37:22.633Z,76.67
2023-01-28T21:40:13.414Z,75.55
2023-01-28T21:43:02.186Z,76.14
2023-01-28T21:45:57.111Z,75.81
2023-01-28T21:48:45.696Z,76.80
2023-01-28T21:51:39.205Z,76.06
2023-01-28T21:54:28.072Z,76.31
2023-01-28T21:57:16.750Z,76.18
2023-01-28T22:00:06.589Z,75.70
2023-01-28T22:02:56.519Z,75.33
2023-01-28T22:05:45.080Z,75.48
2023-01-28T22:08:33.575Z,75.44
2023-01-28T22:11:22.217Z,74.82
2023-01-28T22:14:11.401Z,75.30
2023-01-28T22:17:00.241Z,75.15
2023-01-28T22:19:50.205Z,75.29
2023-01-28T22:22:38.772Z,75.38
2023-01-28T22:25:27.471Z,74.53
2023-01-28T22:28:16.129Z,74.31
2023-01-28T22:31:09.076Z,76.86
2023-01-28T22:33:57.768Z,82.43
2023-01-28T22:36:48.268Z,76.09
2023-01-28T22:39:36.886Z,84.89
2023-01-28T22:42:25.691Z,76.41
2023-01-28T22:45:14.377Z,73.63
2023-01-28T22:48:02.872Z,73.18
2023-01-28T22:50:51.414Z,73.10
2023-01-28T22:53:41.624Z,73.30
2023-01-28T22:56:32.079Z,72.91
2023-01-28T22:59:20.601Z,72.98
2023-01-28T23:02:09.121Z,73.02
2023-01-28T23:04:57.584Z,73.31
2023-01-28T23:07:46.222Z,73.28
2023-01-28T23:10:36.093Z,73.07
2023-01-28T23:13:25.759Z,72.97
2023-01-28T23:16:31.832Z,73.01
2023-01-28T23:19:37.981Z,73.38
2023-01-28T23:22:46.216Z,73.53
2023-01-28T23:25:36.019Z,73.47
2023-01-28T23:28:24.556Z,74.09
2023-01-28T23:31:13.143Z,73.50
2023-01-28T23:34:01.776Z,73.92
2023-01-28T23:36:50.525Z,74.02
2023-01-28T23:39:39.013Z,73.42
2023-01-28T23:42:28.914Z,73.73
2023-01-28T23:45:17.767Z,73.51
2023-01-28T23:48:06.285Z,72.51
2023-01-28T23:50:55.623Z,73.39
2023-01-28T23:53:44.088Z,73.55
2023-01-28T23:56:32.567Z,73.98
2023-01-28T23:59:22.606Z,74.82
